Time;durP1;ratioP1;P1;durP2;ratioP2;P2;SDS_P1;SDS_P2;PMS_P1;PMS_P2;Temp;Humidity;BMP_temperature;BMP_pressure;BME280_temperature;BME280_humidity;BME280_pressure;Samples;Min_cycle;Max_cycle;Signal;HPM_P1;HPM_P2
2023/05/23 00:00:32;;;;;;;24.60;19.07;;;;;;;18.32;87.21;101749.22;5170140;28;20027;-82
2023/05/23 00:03:03;;;;;;;27.50;19.37;;;;;;;18.65;85.71;101782.00;5174174;28;20026;-81
2023/05/23 00:05:35;;;;;;;22.67;19.30;;;;;;;18.36;86.08;101738.22;5173497;28;20041;-81
2023/05/23 00:08:06;;;;;;;23.20;17.90;;;;;;;18.44;86.18;101753.56;5174367;28;20490;-80
2023/05/23 00:10:37;;;;;;;24.37;18.77;;;;;;;18.48;86.70;101764.75;5173680;28;20037;-81
2023/05/23 00:13:13;;;;;;;25.20;19.37;;;;;;;18.14;87.80;101729.34;5173997;28;20027;-81
2023/05/23 00:15:45;;;;;;;23.37;18.73;;;;;;;18.45;86.78;101770.31;5163173;28;20073;-80
2023/05/23 00:18:17;;;;;;;21.83;18.60;;;;;;;18.33;87.16;101758.84;5172780;28;20475;-80
2023/05/23 00:20:50;;;;;;;23.27;18.13;;;;;;;18.13;89.25;101770.03;5172898;28;20088;-81
2023/05/23 00:23:24;;;;;;;24.55;18.45;;;;;;;17.88;89.36;101734.84;5172384;28;20027;-81
2023/05/23 00:25:57;;;;;;;18.85;15.98;;;;;;;18.14;88.09;101747.91;5172229;28;20114;-81
2023/05/23 00:28:28;;;;;;;18.17;15.63;;;;;;;17.85;91.21;101758.94;5173384;28;20474;-81
2023/05/23 00:30:59;;;;;;;21.40;16.53;;;;;;;17.98;89.04;101744.69;5172507;28;20088;-81
2023/05/23 00:33:33;;;;;;;19.53;16.03;;;;;;;17.96;89.16;101751.94;5170867;28;20383;-81
2023/05/23 00:36:04;;;;;;;20.27;15.03;;;;;;;17.91;90.13;101762.88;5174051;28;20100;-82
2023/05/23 00:38:36;;;;;;;16.27;14.17;;;;;;;17.86;90.48;101771.19;5173466;28;20034;-80
2023/05/23 00:41:07;;;;;;;18.00;13.83;;;;;;;17.75;91.30;101760.59;5172039;28;20031;-81
2023/05/23 00:43:38;;;;;;;19.47;13.67;;;;;;;17.52;92.80;101731.38;5188525;28;20411;-81
2023/05/23 00:46:10;;;;;;;15.83;13.23;;;;;;;17.83;90.14;101752.88;5172986;28;20664;-81
2023/05/23 00:48:42;;;;;;;15.43;13.07;;;;;;;18.06;88.90;101779.44;5173245;28;20490;-81
2023/05/23 00:51:13;;;;;;;14.93;12.27;;;;;;;17.71;90.74;101756.47;5173541;28;20069;-81
2023/05/23 00:53:45;;;;;;;14.90;12.10;;;;;;;17.69;90.72;101745.16;5172113;28;20110;-81
2023/05/23 00:56:17;;;;;;;17.27;11.23;;;;;;;17.76;90.61;101770.22;5173158;28;20081;-81
2023/05/23 00:58:49;;;;;;;14.63;10.70;;;;;;;17.69;90.89;101759.25;5172779;28;20126;-82
2023/05/23 01:01:21;;;;;;;14.10;11.47;;;;;;;17.90;89.88;101788.56;5170918;28;20433;-81
2023/05/23 01:03:52;;;;;;;14.70;11.60;;;;;;;17.74;90.46;101782.72;5172725;28;20394;-81
2023/05/23 01:06:24;;;;;;;16.93;11.60;;;;;;;17.63;90.47;101771.13;5172938;28;20027;-81
2023/05/23 01:08:55;;;;;;;17.43;13.17;;;;;;;17.50;91.07;101773.88;5173259;28;20041;-82
2023/05/23 01:11:42;;;;;;;15.17;12.47;;;;;;;17.63;89.10;101749.94;5172221;28;20475;-81
2023/05/23 01:14:47;;;;;;;16.07;11.13;;;;;;;17.95;87.53;101780.25;5172499;28;20417;-81
2023/05/23 01:17:28;;;;;;;20.58;12.70;;;;;;;17.72;88.42;101774.91;5172210;28;20053;-80
2023/05/23 01:20:09;;;;;;;14.83;11.37;;;;;;;17.48;89.47;101767.84;5172836;28;20031;-80
2023/05/23 01:23:01;;;;;;;14.83;12.00;;;;;;;17.76;87.26;101794.06;5172668;28;20034;-80
2023/05/23 01:25:45;;;;;;;17.77;12.30;;;;;;;17.51;88.58;101783.50;5154857;28;20080;-81
2023/05/23 01:28:20;;;;;;;20.38;12.27;;;;;;;17.46;89.50;101785.66;5155902;28;20395;-81
2023/05/23 01:30:56;;;;;;;15.53;11.57;;;;;;;17.59;86.68;101793.53;5171525;28;20026;-81
2023/05/23 01:33:27;;;;;;;20.63;12.27;;;;;;;17.55;86.51;101792.06;5172262;28;20031;-81
2023/05/23 01:36:02;;;;;;;19.50;12.73;;;;;;;17.56;87.31;101791.09;5155194;28;20027;-81
2023/05/23 01:38:34;;;;;;;18.17;12.43;;;;;;;17.65;87.37;101824.84;5171806;28;20030;-81
2023/05/23 01:41:05;;;;;;;18.97;11.97;;;;;;;17.63;85.57;101802.06;5172625;28;20031;-81
2023/05/23 01:43:37;;;;;;;16.07;11.70;;;;;;;17.54;85.43;101799.16;5172002;28;20027;-81
2023/05/23 01:46:09;;;;;;;16.57;11.37;;;;;;;17.48;84.52;101772.28;5171952;28;20034;-80
2023/05/23 01:48:41;;;;;;;25.70;12.10;;;;;;;17.40;87.33;101802.81;5172650;28;20033;-81
2023/05/23 01:51:13;;;;;;;16.30;10.83;;;;;;;17.60;85.17;101802.31;5170721;28;20035;-81
2023/05/23 01:53:44;;;;;;;17.37;11.80;;;;;;;17.36;86.90;101795.25;5171948;28;20027;-81
2023/05/23 01:56:16;;;;;;;21.07;12.53;;;;;;;17.31;86.73;101782.34;5172054;28;20034;-81
2023/05/23 01:58:48;;;;;;;19.47;14.03;;;;;;;17.33;87.80;101806.06;5172074;28;20114;-82
2023/05/23 02:01:19;;;;;;;19.03;12.97;;;;;;;17.27;88.46;101802.06;5170745;28;20110;-82
2023/05/23 02:03:51;;;;;;;22.63;14.53;;;;;;;17.44;87.64;101826.47;5172029;28;20028;-82
2023/05/23 02:06:22;;;;;;;21.17;14.03;;;;;;;17.27;89.31;101802.06;5154111;28;20095;-80
2023/05/23 02:08:53;;;;;;;22.73;14.03;;;;;;;17.22;89.64;101806.84;5171094;28;20702;-81
2023/05/23 02:11:25;;;;;;;21.50;14.53;;;;;;;17.25;89.44;101810.09;5166941;28;20471;-81
2023/05/23 02:13:57;;;;;;;22.87;13.90;;;;;;;17.34;88.64;101816.53;5151387;29;20023;-81
2023/05/23 02:16:28;;;;;;;24.30;14.93;;;;;;;17.25;90.56;101833.94;5151208;28;20172;-81
2023/05/23 02:19:00;;;;;;;28.30;15.13;;;;;;;17.38;90.55;101848.94;5151795;28;20106;-81
2023/05/23 02:21:32;;;;;;;26.27;14.77;;;;;;;17.02;91.22;101806.44;5151215;28;20070;-81
2023/05/23 02:24:03;;;;;;;25.50;13.67;;;;;;;17.06;91.29;101797.34;5151329;28;20033;-81
2023/05/23 02:26:35;;;;;;;21.70;14.50;;;;;;;17.15;91.54;101830.25;5151126;28;20111;-80
2023/05/23 02:29:06;;;;;;;25.00;15.20;;;;;;;17.03;92.60;101821.38;5150245;28;20110;-81
2023/05/23 02:31:37;;;;;;;31.87;15.53;;;;;;;17.02;93.39;101836.41;5133495;28;20031;-82
2023/05/23 02:34:09;;;;;;;23.70;15.20;;;;;;;16.92;94.15;101828.28;5151717;28;20080;-81
2023/05/23 02:36:40;;;;;;;24.83;15.37;;;;;;;16.96;93.58;101820.13;5151429;28;20031;-81
2023/05/23 02:39:11;;;;;;;30.30;16.43;;;;;;;17.19;92.51;101830.88;5151526;28;20031;-81
2023/05/23 02:41:43;;;;;;;24.50;14.27;;;;;;;17.15;92.33;101817.88;5151530;28;20023;-81
2023/05/23 02:44:14;;;;;;;22.10;15.17;;;;;;;17.06;93.25;101821.16;5151053;28;20070;-81
2023/05/23 02:46:45;;;;;;;24.93;14.97;;;;;;;16.93;94.83;101823.84;5150079;28;20070;-80
2023/05/23 02:49:17;;;;;;;22.30;13.27;;;;;;;17.01;93.61;101824.16;5151104;28;20059;-80
2023/05/23 02:51:48;;;;;;;23.27;13.17;;;;;;;16.76;94.39;101819.75;5150742;28;20058;-80
2023/05/23 02:54:20;;;;;;;22.60;12.57;;;;;;;17.01;94.72;101847.09;5151002;28;20360;-80
2023/05/23 02:56:53;;;;;;;18.90;11.50;;;;;;;16.90;93.11;101818.75;5133329;28;20034;-80
2023/05/23 02:59:25;;;;;;;19.53;10.73;;;;;;;17.08;91.40;101819.25;5150725;28;20445;-80
2023/05/23 03:01:56;;;;;;;17.30;11.43;;;;;;;16.70;94.46;101821.03;5149354;28;20023;-80
2023/05/23 03:04:28;;;;;;;17.70;11.67;;;;;;;16.79;94.02;101822.19;5150836;28;20027;-80
2023/05/23 03:06:59;;;;;;;19.40;9.80;;;;;;;17.06;93.20;101847.63;5150071;28;20035;-80
2023/05/23 03:09:31;;;;;;;12.63;8.80;;;;;;;16.92;92.48;101836.22;5150934;28;20709;-80
2023/05/23 03:12:03;;;;;;;14.67;10.17;;;;;;;16.90;92.11;101827.56;5150974;28;20031;-81
2023/05/23 03:14:34;;;;;;;11.57;8.13;;;;;;;16.90;93.29;101832.00;5150856;28;20074;-82
2023/05/23 03:17:06;;;;;;;15.27;7.97;;;;;;;16.93;92.98;101843.19;5149496;28;20027;-80
2023/05/23 03:19:37;;;;;;;10.90;6.73;;;;;;;17.09;91.11;101865.09;5150234;28;20058;-79
2023/05/23 03:22:09;;;;;;;10.33;7.23;;;;;;;16.59;92.27;101835.00;5149663;28;20039;-80
2023/05/23 03:24:40;;;;;;;8.80;6.20;;;;;;;16.58;92.86;101838.63;5150435;28;20475;-80
2023/05/23 03:27:11;;;;;;;9.77;6.10;;;;;;;16.60;92.76;101836.69;5149826;28;20035;-81
2023/05/23 03:29:43;;;;;;;9.43;5.80;;;;;;;16.67;91.77;101819.44;5149153;28;20024;-81
2023/05/23 03:32:14;;;;;;;10.00;6.00;;;;;;;16.78;91.16;101839.00;5149765;28;20036;-81
2023/05/23 03:34:45;;;;;;;9.33;6.00;;;;;;;16.73;90.76;101836.69;5270012;28;20145;-81
2023/05/23 03:37:17;;;;;;;7.33;5.50;;;;;;;16.88;90.05;101849.75;5275519;28;20081;-81
2023/05/23 03:39:48;;;;;;;10.20;5.50;;;;;;;16.91;90.14;101845.09;5257378;28;20039;-81
2023/05/23 03:42:19;;;;;;;7.77;5.57;;;;;;;16.86;91.03;101841.94;5258363;28;20028;-81
2023/05/23 03:44:51;;;;;;;9.33;5.70;;;;;;;17.01;89.88;101855.03;5274383;28;20060;-81
2023/05/23 03:47:25;;;;;;;12.07;6.40;;;;;;;16.78;90.73;101831.91;5276193;28;20028;-80
2023/05/23 03:49:56;;;;;;;6.53;5.70;;;;;;;16.95;92.54;101872.19;5275830;28;20029;-80
2023/05/23 03:52:28;;;;;;;7.20;5.67;;;;;;;16.37;92.56;101814.53;5257453;28;20126;-81
2023/05/23 03:54:59;;;;;;;8.83;5.97;;;;;;;16.85;91.62;101856.13;5275647;28;20032;-81
2023/05/23 03:57:30;;;;;;;10.23;7.23;;;;;;;16.77;91.39;101839.97;5187355;28;20114;-82
2023/05/23 04:00:05;;;;;;;8.17;5.70;;;;;;;16.77;93.80;101855.84;5190103;28;20422;-79
2023/05/23 04:02:39;;;;;;;10.10;6.40;;;;;;;16.86;91.01;101843.75;5165287;28;20068;-80
2023/05/23 04:05:11;;;;;;;8.50;5.97;;;;;;;16.87;91.33;101854.22;5168661;28;20626;-81
2023/05/23 04:07:42;;;;;;;8.00;6.37;;;;;;;16.89;92.15;101865.56;5148691;29;20110;-80
2023/05/23 04:10:15;;;;;;;12.87;7.47;;;;;;;17.11;90.72;101893.16;5151362;28;20051;-80
2023/05/23 04:12:46;;;;;;;11.23;6.90;;;;;;;17.00;91.58;101899.19;5151779;28;20084;-79
2023/05/23 04:15:20;;;;;;;10.20;6.10;;;;;;;16.73;91.65;101852.56;5168425;28;20131;-82
2023/05/23 04:17:51;;;;;;;11.18;7.18;;;;;;;16.60;92.54;101841.97;5141874;28;20080;-81
2023/05/23 04:20:22;;;;;;;11.33;6.70;;;;;;;16.69;92.38;101854.56;5169051;28;20036;-81
2023/05/23 04:22:54;;;;;;;9.73;7.17;;;;;;;16.73;92.44;101867.56;5169643;28;20536;-81
2023/05/23 04:25:26;;;;;;;11.20;6.90;;;;;;;16.44;94.27;101858.91;5170889;28;20499;-80
2023/05/23 04:27:58;;;;;;;12.57;7.33;;;;;;;16.60;94.56;101875.53;5169340;28;20039;-79
2023/05/23 04:30:30;;;;;;;13.10;7.33;;;;;;;16.61;93.05;101864.00;5168365;28;20027;-79
2023/05/23 04:33:01;;;;;;;10.83;6.57;;;;;;;16.71;93.96;101885.34;5168848;28;20037;-80
2023/05/23 04:35:33;;;;;;;14.27;7.93;;;;;;;16.62;92.08;101849.81;5169117;28;20512;-80
2023/05/23 04:38:04;;;;;;;17.53;9.27;;;;;;;16.73;92.46;101872.88;5169374;28;20030;-80
2023/05/23 04:40:35;;;;;;;16.00;9.07;;;;;;;17.02;91.90;101909.66;5167662;28;20110;-80
2023/05/23 04:43:08;;;;;;;14.57;9.27;;;;;;;16.69;92.97;101888.09;5169196;28;20062;-80
2023/05/23 04:45:40;;;;;;;16.00;9.83;;;;;;;16.93;91.98;101909.34;5168061;28;20035;-79
2023/05/23 04:48:15;;;;;;;23.77;11.07;;;;;;;16.52;94.36;101876.06;5170405;28;20029;-80
2023/05/23 04:50:47;;;;;;;19.47;9.63;;;;;;;16.71;95.73;101917.94;5171944;28;20038;-80
2023/05/23 04:53:19;;;;;;;16.90;8.67;;;;;;;16.47;94.51;101872.88;5172389;28;20035;-79
2023/05/23 04:55:50;;;;;;;18.00;9.47;;;;;;;16.62;93.69;101881.53;5171216;28;20038;-79
2023/05/23 04:58:21;;;;;;;20.00;10.97;;;;;;;16.66;94.52;101899.75;5172323;28;20108;-80
2023/05/23 05:00:53;;;;;;;24.93;11.57;;;;;;;16.70;95.44;101937.44;5168900;28;20054;-79
2023/05/23 05:03:25;;;;;;;24.33;12.27;;;;;;;16.69;nan;101915.41;5151621;29;20036;-79
2023/05/23 05:05:56;;;;;;;21.83;11.80;;;;;;;16.67;94.50;101916.44;5152103;28;20027;-80
2023/05/23 05:08:28;;;;;;;28.47;12.73;;;;;;;16.59;94.89;101930.22;5151796;29;20043;-79
2023/05/23 05:10:59;;;;;;;26.80;13.20;;;;;;;16.67;93.77;101911.16;5151944;28;20130;-80
2023/05/23 05:13:30;;;;;;;18.60;11.50;;;;;;;16.60;94.15;101925.78;5151972;28;20042;-80
2023/05/23 05:16:02;;;;;;;29.60;12.03;;;;;;;16.77;94.10;101938.66;5150754;28;20526;-81
2023/05/23 05:18:35;;;;;;;29.10;12.97;;;;;;;16.51;94.87;101927.25;5152042;29;20039;-81
2023/05/23 05:21:06;;;;;;;27.87;12.73;;;;;;;16.57;95.10;101922.38;5151565;29;20403;-79
2023/05/23 05:23:38;;;;;;;21.40;14.07;;;;;;;16.71;93.13;101922.38;5151611;29;20030;-81
2023/05/23 05:26:09;;;;;;;27.17;13.10;;;;;;;16.78;92.09;101923.66;5152742;29;20032;-82
2023/05/23 05:28:41;;;;;;;27.47;12.93;;;;;;;16.63;91.92;101915.84;5153026;28;20050;-81
2023/05/23 05:31:13;;;;;;;25.00;11.70;;;;;;;16.60;91.20;101921.31;5152140;29;20074;-82
2023/05/23 05:33:45;;;;;;;29.20;13.00;;;;;;;16.32;93.67;101912.63;5152445;29;20023;-82
2023/05/23 05:36:18;;;;;;;27.60;13.00;;;;;;;16.28;93.91;101919.09;5151518;28;20031;-82
2023/05/23 05:38:50;;;;;;;29.17;12.17;;;;;;;16.45;91.37;101929.38;5170485;28;20733;-82
2023/05/23 05:41:22;;;;;;;22.67;12.13;;;;;;;16.27;92.21;101927.94;5171949;28;20097;-81
2023/05/23 05:43:53;;;;;;;27.87;12.47;;;;;;;16.23;91.44;101918.53;5155587;28;20034;-82
2023/05/23 05:46:25;;;;;;;30.10;12.00;;;;;;;16.20;92.82;101941.59;5169736;28;20034;-81
2023/05/23 05:48:56;;;;;;;30.87;13.03;;;;;;;16.29;91.98;101944.56;5169553;28;20080;-80
2023/05/23 05:51:28;;;;;;;25.00;11.57;;;;;;;16.31;91.08;101959.38;5171983;28;20030;-82
2023/05/23 05:53:59;;;;;;;26.47;10.97;;;;;;;15.99;91.81;101913.91;5172052;28;20037;-81
2023/05/23 05:56:31;;;;;;;20.37;10.80;;;;;;;16.17;90.56;101941.78;5150281;28;20031;-80
2023/05/23 05:59:02;;;;;;;29.53;10.70;;;;;;;16.12;91.75;101946.53;5153035;28;20088;-80
2023/05/23 06:01:35;;;;;;;26.73;10.87;;;;;;;16.49;90.39;101985.53;5147494;28;20049;-80
2023/05/23 06:04:06;;;;;;;22.93;10.83;;;;;;;16.23;89.93;101951.13;5170537;28;20031;-80
2023/05/23 06:06:37;;;;;;;24.37;10.70;;;;;;;16.41;90.12;101972.81;5170917;28;20098;-79
2023/05/23 06:09:09;;;;;;;27.97;11.43;;;;;;;16.27;89.51;101949.94;5170400;28;20042;-79
2023/05/23 06:11:41;;;;;;;26.93;10.73;;;;;;;16.32;90.78;101991.91;5152374;28;20091;-79
2023/05/23 06:14:12;;;;;;;27.40;9.57;;;;;;;16.14;90.04;101978.13;5170707;28;20026;-79
2023/05/23 06:16:43;;;;;;;18.23;8.93;;;;;;;15.88;91.62;101973.59;5169317;28;20023;-80
2023/05/23 06:19:15;;;;;;;25.57;8.97;;;;;;;16.17;90.83;102022.88;5172103;28;20046;-80
2023/05/23 06:21:46;;;;;;;18.43;8.07;;;;;;;15.96;91.13;102003.00;5172185;28;20035;-80
2023/05/23 06:24:17;;;;;;;19.73;6.77;;;;;;;15.97;89.72;102007.31;5153164;28;20039;-78
2023/05/23 06:26:49;;;;;;;14.60;6.90;;;;;;;16.06;87.91;101992.69;5132802;28;20118;-79
2023/05/23 06:29:20;;;;;;;12.77;6.53;;;;;;;15.88;89.41;101985.94;5132397;28;20031;-79
2023/05/23 06:31:51;;;;;;;14.53;6.23;;;;;;;15.94;87.81;101996.97;5132140;28;20076;-79
2023/05/23 06:34:23;;;;;;;13.00;5.80;;;;;;;15.92;87.36;101985.63;5150230;28;20035;-80
2023/05/23 06:36:54;;;;;;;16.10;5.97;;;;;;;15.92;87.78;101990.06;5132837;28;20045;-79
2023/05/23 06:39:25;;;;;;;14.37;6.47;;;;;;;15.85;87.43;101997.53;5149976;28;20027;-79
2023/05/23 06:41:57;;;;;;;13.27;6.27;;;;;;;15.71;87.70;102003.69;5150230;28;20039;-79
2023/05/23 06:44:28;;;;;;;15.00;5.80;;;;;;;15.83;87.05;102017.94;5131767;28;20487;-79
2023/05/23 06:47:00;;;;;;;15.33;5.70;;;;;;;15.69;87.14;102002.97;5150060;28;20028;-79
2023/05/23 06:49:31;;;;;;;12.20;5.87;;;;;;;15.64;86.52;102016.44;5155572;28;20587;-79
2023/05/23 06:52:02;;;;;;;14.03;5.83;;;;;;;15.73;88.40;102036.16;5170408;28;20114;-81
2023/05/23 06:54:34;;;;;;;18.33;6.87;;;;;;;15.69;87.18;102032.84;5170542;28;20038;-80
2023/05/23 06:57:05;;;;;;;13.83;6.30;;;;;;;15.78;89.04;102062.28;5162326;28;20129;-80
2023/05/23 06:59:36;;;;;;;14.10;5.60;;;;;;;15.65;91.50;102041.06;5149064;28;20572;-80
2023/05/23 07:02:08;;;;;;;10.83;4.80;;;;;;;15.54;87.47;102041.72;5154463;28;20062;-79
2023/05/23 07:04:39;;;;;;;12.77;5.67;;;;;;;15.71;88.38;102062.66;5149903;29;20059;-80
2023/05/23 07:07:11;;;;;;;15.53;5.97;;;;;;;15.63;88.05;102050.88;5139484;28;20038;-80
2023/05/23 07:09:42;;;;;;;14.97;6.37;;;;;;;15.56;87.06;102045.97;5169827;28;20037;-80
2023/05/23 07:12:14;;;;;;;13.10;5.40;;;;;;;15.59;85.86;102044.94;5167633;28;20318;-78
2023/05/23 07:14:45;;;;;;;17.33;5.63;;;;;;;15.57;84.25;102036.25;5148571;28;20399;-79
2023/05/23 07:17:17;;;;;;;10.83;5.03;;;;;;;15.62;83.04;102031.56;5132481;28;20107;-79
2023/05/23 07:19:48;;;;;;;11.77;4.90;;;;;;;15.82;80.32;102064.63;5163537;28;20041;-80
2023/05/23 07:22:19;;;;;;;12.43;5.57;;;;;;;15.83;79.18;102050.47;5170003;28;20522;-80
2023/05/23 07:24:51;;;;;;;12.73;5.23;;;;;;;16.02;76.52;102051.13;5169833;28;20037;-80
2023/05/23 07:27:22;;;;;;;14.63;6.20;;;;;;;15.96;75.34;102054.97;5159886;28;20031;-78
2023/05/23 07:29:53;;;;;;;12.60;5.50;;;;;;;16.07;74.93;102057.84;5148548;28;20034;-78
2023/05/23 07:32:25;;;;;;;16.50;5.50;;;;;;;16.37;73.39;102073.59;5157383;28;20038;-79
2023/05/23 07:34:56;;;;;;;15.90;5.23;;;;;;;16.36;70.80;102067.44;5169014;28;20061;-80
2023/05/23 07:37:27;;;;;;;16.00;6.47;;;;;;;16.29;72.69;102066.16;5151929;28;20077;-79
2023/05/23 07:39:59;;;;;;;12.83;5.90;;;;;;;16.63;69.35;102026.06;5168292;28;20038;-80
2023/05/23 07:42:31;;;;;;;14.47;5.73;;;;;;;16.72;65.54;102032.53;5169009;28;20070;-79
2023/05/23 07:45:02;;;;;;;13.97;5.40;;;;;;;16.86;65.64;102055.41;5168055;28;20157;-80
2023/05/23 07:47:34;;;;;;;12.33;4.93;;;;;;;16.80;65.21;102054.03;5168606;28;20096;-80
2023/05/23 07:50:06;;;;;;;12.63;6.60;;;;;;;16.90;64.58;102044.50;5151161;28;20035;-80
2023/05/23 07:52:38;;;;;;;12.37;5.33;;;;;;;16.97;62.59;102060.81;5161326;28;20027;-79
2023/05/23 07:55:09;;;;;;;14.90;5.80;;;;;;;17.23;62.81;102097.91;5167454;28;20033;-80
2023/05/23 07:57:40;;;;;;;14.17;6.10;;;;;;;16.93;63.80;102067.28;5165598;28;20057;-79
2023/05/23 08:00:13;;;;;;;12.60;6.53;;;;;;;16.82;63.98;102068.00;5167199;28;20096;-79
2023/05/23 08:02:45;;;;;;;15.90;5.80;;;;;;;16.81;65.19;102067.16;5166794;28;20068;-78
2023/05/23 08:05:18;;;;;;;14.13;6.50;;;;;;;16.53;63.91;102070.78;5167169;28;20058;-79
2023/05/23 08:07:49;;;;;;;13.43;6.73;;;;;;;16.58;63.99;102058.13;5164932;28;20038;-80
2023/05/23 08:10:20;;;;;;;11.83;5.20;;;;;;;16.72;63.01;102057.16;5156999;28;20023;-80
2023/05/23 08:12:52;;;;;;;14.87;5.60;;;;;;;16.65;64.59;102072.59;5173017;28;20030;-80
2023/05/23 08:15:23;;;;;;;12.90;5.63;;;;;;;16.96;62.95;102082.09;5171171;28;20051;-80
2023/05/23 08:17:55;;;;;;;11.77;6.00;;;;;;;16.76;63.78;102065.75;5183789;28;20070;-79
2023/05/23 08:20:30;;;;;;;12.83;5.77;;;;;;;17.05;63.08;102081.47;5225408;28;20377;-79
2023/05/23 08:23:02;;;;;;;11.67;5.87;;;;;;;17.35;63.62;102109.47;5186253;28;20051;-78
2023/05/23 08:25:34;;;;;;;11.67;5.50;;;;;;;17.29;63.49;102117.84;5201046;28;20029;-79
2023/05/23 08:28:05;;;;;;;13.07;5.50;;;;;;;17.40;62.26;102107.34;5200728;28;20031;-80
2023/05/23 08:30:36;;;;;;;17.23;6.40;;;;;;;17.23;63.96;102094.41;5209472;28;20062;-80
2023/05/23 08:33:08;;;;;;;15.17;5.40;;;;;;;17.01;63.90;102061.47;5180243;28;20062;-78
2023/05/23 08:35:40;;;;;;;11.03;6.17;;;;;;;17.26;63.00;102104.81;5191336;28;20031;-79
2023/05/23 08:38:11;;;;;;;13.73;5.80;;;;;;;17.15;63.77;102097.59;5230833;28;20063;-79
2023/05/23 08:40:50;;;;;;;11.63;5.33;;;;;;;17.22;62.68;102075.06;5217711;28;20536;-78
2023/05/23 08:43:21;;;;;;;14.23;5.67;;;;;;;17.22;63.31;102090.94;5205685;28;20044;-78
2023/05/23 08:45:53;;;;;;;11.37;5.90;;;;;;;17.11;63.88;102094.31;5212499;28;20495;-77
2023/05/23 08:48:25;;;;;;;9.13;4.73;;;;;;;17.08;64.67;102110.38;5224821;28;20031;-78
2023/05/23 08:50:58;;;;;;;11.87;5.00;;;;;;;17.04;64.85;102104.44;5235857;28;20042;-78
2023/05/23 08:53:31;;;;;;;9.80;5.03;;;;;;;17.35;64.21;102122.69;5214112;28;20096;-78
2023/05/23 08:56:02;;;;;;;10.17;4.87;;;;;;;17.10;64.65;102089.13;5214311;28;20039;-79
2023/05/23 08:58:34;;;;;;;8.70;4.47;;;;;;;17.52;63.83;102139.25;5232488;28;20536;-79
2023/05/23 09:01:07;;;;;;;12.63;4.80;;;;;;;17.36;64.94;102103.22;5234382;28;20059;-78
2023/05/23 09:03:41;;;;;;;11.93;5.10;;;;;;;17.63;65.58;102136.69;5235433;28;20043;-79
2023/05/23 09:06:12;;;;;;;10.95;4.65;;;;;;;17.68;64.43;102143.47;5172879;28;20061;-79
2023/05/23 09:08:45;;;;;;;8.87;4.07;;;;;;;17.51;65.00;102125.16;5208270;28;20058;-80
2023/05/23 09:11:16;;;;;;;14.43;5.13;;;;;;;17.60;66.49;102117.50;5206223;28;20540;-80
2023/05/23 09:13:48;;;;;;;9.17;3.70;;;;;;;17.98;63.29;102097.19;5183995;28;20024;-79
2023/05/23 09:16:20;;;;;;;13.23;5.07;;;;;;;18.00;63.28;102143.00;5218636;28;20489;-79
2023/05/23 09:18:51;;;;;;;7.77;3.57;;;;;;;17.84;62.07;102109.63;5233757;28;20033;-81
2023/05/23 09:21:23;;;;;;;12.60;4.20;;;;;;;17.75;62.76;102087.28;5198550;28;20632;-78
2023/05/23 09:23:54;;;;;;;12.07;4.37;;;;;;;17.60;62.82;102102.47;5241812;28;20040;-79
2023/05/23 09:26:26;;;;;;;10.80;3.73;;;;;;;17.59;63.43;102123.78;5218265;28;20039;-78
2023/05/23 09:29:01;;;;;;;10.87;4.03;;;;;;;17.81;62.18;102132.84;5213900;28;20031;-78
2023/05/23 09:31:32;;;;;;;;;;;;;;;18.81;61.06;102163.75;5213746;28;20820;-78
2023/05/23 09:34:03;;;;;;;17.10;3.63;;;;;;;17.95;59.60;102103.56;5239258;28;19908;-79
2023/05/23 09:36:35;;;;;;;15.60;4.63;;;;;;;18.26;58.22;102133.22;5216340;28;20040;-79
2023/05/23 09:39:07;;;;;;;11.80;3.63;;;;;;;18.37;57.54;102140.38;5225877;28;20038;-79
2023/05/23 09:41:38;;;;;;;12.60;3.30;;;;;;;17.96;55.73;102139.72;5225121;28;20034;-79
2023/05/23 09:44:10;;;;;;;12.23;3.30;;;;;;;18.17;56.98;102168.31;5191895;28;20705;-79
2023/05/23 09:46:41;;;;;;;19.00;4.90;;;;;;;17.67;55.19;102121.44;5178289;28;20564;-78
2023/05/23 09:49:21;;;;;;;11.27;3.97;;;;;;;18.06;56.93;102165.56;5207498;28;20027;-81
2023/05/23 09:52:00;;;;;;;15.00;3.23;;;;;;;17.89;56.91;102134.00;5230234;28;20470;-81
2023/05/23 09:54:31;;;;;;;13.93;3.97;;;;;;;18.03;55.04;102118.91;5216075;28;20029;-80
2023/05/23 09:57:12;;;;;;;13.53;3.67;;;;;;;18.38;55.64;102135.91;5211156;28;20045;-81
2023/05/23 09:59:55;;;;;;;8.83;3.40;;;;;;;18.59;55.02;102132.63;5208450;28;20390;-80
2023/05/23 10:03:01;;;;;;;12.30;3.33;;;;;;;18.52;54.31;102099.59;5190152;28;20048;-80
2023/05/23 10:05:33;;;;;;;13.13;3.10;;;;;;;18.96;51.92;102152.94;5203856;28;20024;-81
2023/05/23 10:08:13;;;;;;;8.83;3.40;;;;;;;18.94;50.58;102162.81;5211583;28;20042;-79
2023/05/23 10:11:07;;;;;;;18.63;3.67;;;;;;;19.44;51.60;102159.94;5201207;28;20042;-80
2023/05/23 10:13:44;;;;;;;14.60;3.38;;;;;;;19.55;48.59;102135.22;5218293;28;20107;-80
2023/05/23 10:16:30;;;;;;;12.83;3.17;;;;;;;20.76;47.23;102161.16;5167703;28;20535;-80
2023/05/23 10:19:25;;;;;;;16.40;4.20;;;;;;;21.34;43.17;102126.25;5142306;28;20473;-80
2023/05/23 10:22:03;;;;;;;11.30;3.30;;;;;;;21.90;44.18;102113.44;5158849;28;20054;-82
2023/05/23 10:24:35;;;;;;;10.93;3.30;;;;;;;22.83;42.41;102138.13;5157618;28;20147;-81
2023/05/23 10:27:07;;;;;;;12.85;3.60;;;;;;;22.00;40.62;102121.47;5149501;28;20027;-81
2023/05/23 10:29:38;;;;;;;11.65;3.42;;;;;;;21.81;39.99;102108.91;5164938;28;20867;-82
2023/05/23 10:32:11;;;;;;;11.48;3.40;;;;;;;21.74;40.38;102128.09;5150175;28;20394;-82
2023/05/23 10:35:15;;;;;;;10.23;3.55;;;;;;;22.26;41.60;102112.09;5154122;28;20026;-83
2023/05/23 10:38:06;;;;;;;12.05;3.55;;;;;;;22.23;41.39;102116.75;5171591;28;20027;-82
2023/05/23 10:40:56;;;;;;;10.23;3.90;;;;;;;22.65;40.75;102165.53;5152120;28;20025;-82
2023/05/23 10:43:33;;;;;;;11.90;3.42;;;;;;;22.18;39.75;102143.00;5169352;28;20037;-81
2023/05/23 10:46:07;;;;;;;14.30;3.65;;;;;;;22.51;38.73;102104.53;5165668;28;20030;-82
2023/05/23 10:48:43;;;;;;;13.15;3.28;;;;;;;22.47;39.67;102139.50;5167866;28;20026;-80
2023/05/23 10:51:16;;;;;;;10.98;4.03;;;;;;;22.60;39.00;102154.41;5150702;28;20034;-81
2023/05/23 10:53:53;;;;;;;18.23;4.78;;;;;;;22.39;40.16;102141.19;5150306;28;20023;-80
2023/05/23 10:56:24;;;;;;;12.57;3.33;;;;;;;21.62;38.51;102121.19;5168602;28;20034;-82
2023/05/23 10:58:59;;;;;;;10.73;3.47;;;;;;;21.81;38.33;102116.91;5167136;28;20033;-81
2023/05/23 11:01:30;;;;;;;8.18;3.33;;;;;;;22.05;38.59;102134.38;5167921;28;20058;-81
2023/05/23 11:04:06;;;;;;;11.38;3.78;;;;;;;22.63;36.91;102159.50;5167782;28;20049;-81
2023/05/23 11:06:41;;;;;;;8.85;3.00;;;;;;;22.64;37.47;102121.13;5167912;28;20478;-81
2023/05/23 11:09:20;;;;;;;14.80;3.97;;;;;;;22.59;37.85;102168.72;5167526;28;20430;-81
2023/05/23 11:12:04;;;;;;;15.95;3.90;;;;;;;22.93;37.38;102157.66;5150752;28;20494;-81
2023/05/23 11:14:36;;;;;;;12.13;4.43;;;;;;;22.62;37.22;102146.28;5228545;28;20523;-81
2023/05/23 11:17:11;;;;;;;9.95;3.92;;;;;;;23.30;36.55;102157.88;5271753;28;20047;-82
2023/05/23 11:19:58;;;;;;;13.32;4.07;;;;;;;23.17;36.75;102097.56;5273322;28;20031;-82
2023/05/23 11:22:30;;;;;;;10.65;3.70;;;;;;;23.54;35.29;102145.88;5272564;28;20516;-82
2023/05/23 11:25:07;;;;;;;17.25;4.68;;;;;;;23.50;36.05;102117.72;5272810;28;20069;-81
2023/05/23 11:27:40;;;;;;;13.57;3.88;;;;;;;23.36;35.39;102154.63;5272870;28;20028;-81
2023/05/23 11:30:14;;;;;;;13.45;4.38;;;;;;;23.64;34.91;102146.66;5272447;28;20085;-81
2023/05/23 11:32:54;;;;;;;11.55;3.83;;;;;;;23.92;35.45;102151.16;5254562;28;20934;-81
2023/05/23 11:35:26;;;;;;;11.25;3.45;;;;;;;23.49;35.55;102116.91;5255440;28;20132;-82
2023/05/23 11:37:58;;;;;;;11.60;3.88;;;;;;;23.26;35.54;102162.66;5272707;28;20024;-82
2023/05/23 11:40:34;;;;;;;13.10;4.47;;;;;;;23.23;35.90;102148.75;5273100;28;20028;-82